Time,TemperatureF,DewpointF,PressureIn,WindDirection,WindDirectionDegrees,WindSpeedMPH,WindSpeedGustMPH,Humidity,HourlyPrecipIn,Conditions,Clouds,dailyrainin,SoftwareType,DateUTC
2013-05-14 00:01:00,60.0,39.0,29.93,ESE,117,1.0,7.0,46,0.00,,,0.00,,2013-05-14 05:01:00,
2013-05-14 00:12:00,60.0,39.0,29.93,ESE,117,1.0,7.0,46,0.00,,,0.00,,2013-05-14 05:12:00,
2013-05-14 00:22:00,60.0,38.0,29.92,East,89,2.0,5.0,44,0.00,,,0.00,,2013-05-14 05:22:00,
2013-05-14 00:32:00,60.0,38.0,29.91,SSE,155,0.0,8.0,44,0.00,,,0.00,,2013-05-14 05:32:00,
2013-05-14 00:42:00,60.0,38.0,29.91,SSE,155,0.0,8.0,44,0.00,,,0.00,,2013-05-14 05:42:00,
2013-05-14 00:52:00,60.0,37.0,29.91,SSE,158,2.0,9.0,43,0.00,,,0.00,,2013-05-14 05:52:00,
2013-05-14 01:01:00,60.0,37.0,29.90,NW,318,2.0,9.0,43,0.00,,,0.00,,2013-05-14 06:01:00,
2013-05-14 01:12:00,60.0,37.0,29.90,NW,318,2.0,9.0,43,0.00,,,0.00,,2013-05-14 06:12:00,
2013-05-14 01:22:00,60.0,37.0,29.90,ESE,121,3.0,8.0,43,0.00,,,0.00,,2013-05-14 06:22:00,
2013-05-14 01:32:00,60.0,37.0,29.89,SSE,155,2.0,7.0,43,0.00,,,0.00,,2013-05-14 06:32:00,
2013-05-14 01:42:00,60.0,37.0,29.89,SSE,155,2.0,7.0,43,0.00,,,0.00,,2013-05-14 06:42:00,
2013-05-14 01:52:00,60.0,38.0,29.88,SSW,196,2.0,8.0,44,0.00,,,0.00,,2013-05-14 06:52:00,
2013-05-14 02:02:00,60.0,39.0,29.87,SSE,159,2.0,6.0,46,0.00,,,0.00,,2013-05-14 07:02:00,
2013-05-14 02:11:00,60.0,39.0,29.87,SSE,159,2.0,6.0,46,0.00,,,0.00,,2013-05-14 07:11:00,
2013-05-14 02:21:00,60.0,39.0,29.87,WSW,250,1.0,7.0,46,0.00,,,0.00,,2013-05-14 07:21:00,
2013-05-14 02:31:00,59.0,39.0,29.87,West,265,1.0,7.0,48,0.00,,,0.00,,2013-05-14 07:31:00,
2013-05-14 02:42:00,59.0,39.0,29.85,SE,124,0.0,6.0,48,0.00,,,0.00,,2013-05-14 07:42:00,
2013-05-14 02:52:00,59.0,39.0,29.85,SE,124,0.0,6.0,48,0.00,,,0.00,,2013-05-14 07:52:00,
2013-05-14 03:02:00,59.0,40.0,29.85,SSE,162,1.0,7.0,49,0.00,,,0.00,,2013-05-14 08:02:00,
2013-05-14 03:11:00,59.0,40.0,29.85,SSE,162,1.0,7.0,49,0.00,,,0.00,,2013-05-14 08:11:00,
2013-05-14 03:21:00,59.0,41.0,29.84,East,80,2.0,7.0,51,0.00,,,0.00,,2013-05-14 08:21:00,
2013-05-14 03:31:00,59.0,41.0,29.84,SW,235,1.0,6.0,52,0.00,,,0.00,,2013-05-14 08:31:00,
2013-05-14 03:41:00,58.0,41.0,29.83,SW,221,1.0,9.0,53,0.00,,,0.00,,2013-05-14 08:41:00,
2013-05-14 03:52:00,58.0,41.0,29.83,SW,221,1.0,9.0,53,0.00,,,0.00,,2013-05-14 08:52:00,
2013-05-14 04:02:00,58.0,41.0,29.83,SW,221,0.0,6.0,54,0.00,,,0.00,,2013-05-14 09:02:00,
2013-05-14 04:11:00,58.0,41.0,29.83,SW,221,0.0,6.0,54,0.00,,,0.00,,2013-05-14 09:11:00,
2013-05-14 04:22:00,58.0,42.0,29.81,SE,142,2.0,9.0,55,0.00,,,0.00,,2013-05-14 09:22:00,
2013-05-14 04:32:00,58.0,43.0,29.81,NW,304,1.0,8.0,57,0.00,,,0.00,,2013-05-14 09:32:00,
2013-05-14 04:44:00,58.0,43.0,29.80,West,268,2.0,7.0,57,0.00,,,0.00,,2013-05-14 09:44:00,
2013-05-14 04:54:00,58.0,43.0,29.80,West,268,2.0,7.0,57,0.00,,,0.00,,2013-05-14 09:54:00,
2013-05-14 05:04:00,58.0,43.0,29.80,West,275,2.0,6.0,58,0.00,,,0.00,,2013-05-14 10:04:00,
2013-05-14 05:14:00,58.0,43.0,29.80,West,275,2.0,6.0,58,0.00,,,0.00,,2013-05-14 10:14:00,
2013-05-14 05:25:00,58.0,44.0,29.79,SSE,148,2.0,6.0,59,0.00,,,0.00,,2013-05-14 10:25:00,
2013-05-14 05:33:00,58.0,44.0,29.79,ESE,117,3.0,9.0,60,0.00,,,0.00,,2013-05-14 10:33:00,
2013-05-14 05:42:00,58.0,44.0,29.79,ESE,117,3.0,9.0,60,0.00,,,0.00,,2013-05-14 10:42:00,
2013-05-14 05:52:00,58.0,45.0,29.79,South,171,2.0,10.0,61,0.00,,,0.00,,2013-05-14 10:52:00,
2013-05-14 06:02:00,58.0,45.0,29.79,West,264,2.0,8.0,61,0.00,,,0.00,,2013-05-14 11:02:00,
2013-05-14 06:11:00,58.0,45.0,29.79,West,264,2.0,8.0,61,0.00,,,0.00,,2013-05-14 11:11:00,
2013-05-14 06:21:00,58.0,45.0,29.80,SE,124,0.0,4.0,63,0.00,,,0.00,,2013-05-14 11:21:00,
2013-05-14 06:32:00,58.0,46.0,29.79,South,182,2.0,10.0,64,0.00,,,0.00,,2013-05-14 11:32:00,
2013-05-14 06:43:00,58.0,46.0,29.79,South,182,2.0,10.0,64,0.00,,,0.00,,2013-05-14 11:43:00,
2013-05-14 06:53:00,58.0,46.0,29.80,SE,128,1.0,6.0,64,0.00,,,0.00,,2013-05-14 11:53:00,
2013-05-14 07:02:00,59.0,47.0,29.80,NW,309,2.0,6.0,65,0.00,,,0.00,,2013-05-14 12:02:00,
2013-05-14 07:12:00,59.0,47.0,29.80,NW,309,2.0,6.0,65,0.00,,,0.00,,2013-05-14 12:12:00,
2013-05-14 07:21:00,59.0,47.0,29.80,SW,221,1.0,6.0,65,0.00,,,0.00,,2013-05-14 12:21:00,
2013-05-14 07:32:00,60.0,48.0,29.80,West,261,3.0,6.0,65,0.00,,,0.00,,2013-05-14 12:32:00,
2013-05-14 07:42:00,60.0,48.0,29.80,West,261,3.0,6.0,65,0.00,,,0.00,,2013-05-14 12:42:00,
2013-05-14 07:52:00,61.0,49.0,29.80,SSE,165,2.0,7.0,65,0.00,,,0.00,,2013-05-14 12:52:00,
2013-05-14 08:01:00,63.0,50.0,29.80,WNW,284,2.0,8.0,63,0.00,,,0.00,,2013-05-14 13:01:00,
2013-05-14 08:11:00,63.0,50.0,29.80,WNW,284,2.0,8.0,63,0.00,,,0.00,,2013-05-14 13:11:00,
2013-05-14 08:22:00,64.0,51.0,29.79,South,186,2.0,5.0,62,0.00,,,0.00,,2013-05-14 13:22:00,
2013-05-14 08:32:00,65.0,52.0,29.79,West,280,3.0,7.0,63,0.00,,,0.00,,2013-05-14 13:32:00,
2013-05-14 08:41:00,65.0,52.0,29.79,West,280,3.0,7.0,63,0.00,,,0.00,,2013-05-14 13:41:00,
2013-05-14 08:52:00,65.0,52.0,29.79,West,280,3.0,7.0,63,0.00,,,0.00,,2013-05-14 13:52:00,
2013-05-14 09:01:00,68.0,54.0,29.79,West,266,4.0,10.0,60,0.00,,,0.00,,2013-05-14 14:01:00,
2013-05-14 09:11:00,69.0,55.0,29.79,WSW,240,3.0,10.0,60,0.00,,,0.00,,2013-05-14 14:11:00,
2013-05-14 09:22:00,69.0,55.0,29.79,WSW,240,3.0,10.0,60,0.00,,,0.00,,2013-05-14 14:22:00,
2013-05-14 09:31:00,70.0,55.0,29.78,West,274,3.0,9.0,58,0.00,,,0.00,,2013-05-14 14:31:00,
2013-05-14 09:41:00,70.0,55.0,29.78,West,274,3.0,9.0,58,0.00,,,0.00,,2013-05-14 14:41:00,
2013-05-14 09:52:00,71.0,55.0,29.78,WNW,296,3.0,9.0,57,0.00,,,0.00,,2013-05-14 14:52:00,
2013-05-14 10:01:00,72.0,55.0,29.78,NW,309,5.0,10.0,55,0.00,,,0.00,,2013-05-14 15:01:00,
2013-05-14 10:12:00,72.0,55.0,29.78,NW,309,5.0,10.0,55,0.00,,,0.00,,2013-05-14 15:12:00,
2013-05-14 10:21:00,73.0,55.0,29.78,West,276,4.0,6.0,54,0.00,,,0.00,,2013-05-14 15:21:00,
2013-05-14 10:33:00,74.0,56.0,29.78,NW,325,4.0,11.0,53,0.00,,,0.00,,2013-05-14 15:33:00,
2013-05-14 10:43:00,76.0,55.0,29.78,WSW,244,4.0,9.0,49,0.00,,,0.00,,2013-05-14 15:43:00,
2013-05-14 10:53:00,76.0,55.0,29.78,WSW,244,4.0,9.0,49,0.00,,,0.00,,2013-05-14 15:53:00,
2013-05-14 11:02:00,77.0,56.0,29.78,West,281,3.0,6.0,49,0.00,,,0.00,,2013-05-14 16:02:00,
2013-05-14 11:12:00,77.0,56.0,29.78,West,281,3.0,6.0,49,0.00,,,0.00,,2013-05-14 16:12:00,
2013-05-14 11:23:00,78.0,58.0,29.77,NW,321,4.0,8.0,50,0.00,,,0.00,,2013-05-14 16:23:00,
2013-05-14 11:33:00,79.0,58.0,29.77,South,188,1.0,5.0,49,0.00,,,0.00,,2013-05-14 16:33:00,
2013-05-14 11:43:00,79.0,58.0,29.77,South,188,1.0,5.0,49,0.00,,,0.00,,2013-05-14 16:43:00,
2013-05-14 11:54:00,80.0,59.0,29.77,NW,322,3.0,8.0,48,0.00,,,0.00,,2013-05-14 16:54:00,
2013-05-14 12:03:00,81.0,58.0,29.77,NW,316,4.0,11.0,45,0.00,,,0.00,,2013-05-14 17:03:00,
2013-05-14 12:13:00,81.0,58.0,29.77,NW,316,4.0,11.0,45,0.00,,,0.00,,2013-05-14 17:13:00,
2013-05-14 12:24:00,82.0,56.0,29.77,West,261,3.0,8.0,41,0.00,,,0.00,,2013-05-14 17:24:00,
2013-05-14 12:32:00,83.0,58.0,29.76,WNW,283,3.0,10.0,43,0.00,,,0.00,,2013-05-14 17:32:00,
2013-05-14 12:43:00,83.0,58.0,29.76,WNW,283,3.0,10.0,43,0.00,,,0.00,,2013-05-14 17:43:00,
2013-05-14 12:52:00,84.0,56.0,29.76,NW,322,3.0,9.0,39,0.00,,,0.00,,2013-05-14 17:52:00,
2013-05-14 13:02:00,85.0,55.0,29.76,WNW,296,3.0,7.0,36,0.00,,,0.00,,2013-05-14 18:02:00,
2013-05-14 13:12:00,85.0,55.0,29.76,WNW,296,3.0,7.0,36,0.00,,,0.00,,2013-05-14 18:12:00,
2013-05-14 13:22:00,87.0,58.0,29.75,West,275,1.0,6.0,37,0.00,,,0.00,,2013-05-14 18:22:00,
2013-05-14 13:32:00,88.0,57.0,29.75,NW,326,1.0,4.0,35,0.00,,,0.00,,2013-05-14 18:32:00,
2013-05-14 13:42:00,88.0,57.0,29.75,NW,326,1.0,4.0,35,0.00,,,0.00,,2013-05-14 18:42:00,
2013-05-14 13:52:00,89.0,54.0,29.75,WNW,296,2.0,5.0,31,0.00,,,0.00,,2013-05-14 18:52:00,
2013-05-14 14:01:00,90.0,53.0,29.74,WNW,292,2.0,5.0,29,0.00,,,0.00,,2013-05-14 19:01:00,
2013-05-14 14:12:00,90.0,53.0,29.74,WNW,292,2.0,5.0,29,0.00,,,0.00,,2013-05-14 19:12:00,
2013-05-14 14:22:00,91.0,52.0,29.73,SSW,199,0.0,5.0,27,0.00,,,0.00,,2013-05-14 19:22:00,
2013-05-14 14:32:00,91.0,56.0,29.73,ESE,108,1.0,7.0,31,0.00,,,0.00,,2013-05-14 19:32:00,
2013-05-14 14:42:00,91.0,56.0,29.73,ESE,108,1.0,7.0,31,0.00,,,0.00,,2013-05-14 19:42:00,
2013-05-14 14:52:00,92.0,51.0,29.72,SE,132,2.0,5.0,25,0.00,,,0.00,,2013-05-14 19:52:00,
2013-05-14 15:02:00,93.0,54.0,29.72,WSW,252,2.0,5.0,27,0.00,,,0.00,,2013-05-14 20:02:00,
2013-05-14 15:11:00,93.0,54.0,29.72,WSW,252,2.0,5.0,27,0.00,,,0.00,,2013-05-14 20:11:00,
2013-05-14 15:23:00,92.0,50.0,29.71,WSW,252,2.0,5.0,24,0.00,,,0.00,,2013-05-14 20:23:00,
2013-05-14 15:32:00,93.0,52.0,29.71,ESE,116,1.0,10.0,25,0.00,,,0.00,,2013-05-14 20:32:00,
2013-05-14 15:44:00,93.0,52.0,29.71,ESE,116,1.0,10.0,25,0.00,,,0.00,,2013-05-14 20:44:00,
2013-05-14 15:52:00,94.0,51.0,29.70,SE,125,1.0,4.0,23,0.00,,,0.00,,2013-05-14 20:52:00,
2013-05-14 16:03:00,94.0,51.0,29.69,SW,215,2.0,5.0,23,0.00,,,0.00,,2013-05-14 21:03:00,
2013-05-14 16:12:00,94.0,51.0,29.69,SW,215,2.0,5.0,23,0.00,,,0.00,,2013-05-14 21:12:00,
2013-05-14 16:23:00,95.0,50.0,29.69,NNW,331,0.0,6.0,22,0.00,,,0.00,,2013-05-14 21:23:00,
2013-05-14 16:33:00,94.0,49.0,29.68,WSW,250,2.0,6.0,22,0.00,,,0.00,,2013-05-14 21:33:00,
2013-05-14 16:43:00,94.0,49.0,29.68,WSW,250,2.0,6.0,22,0.00,,,0.00,,2013-05-14 21:43:00,
2013-05-14 16:53:00,94.0,51.0,29.68,SSE,155,1.0,8.0,23,0.00,,,0.00,,2013-05-14 21:53:00,
2013-05-14 17:03:00,94.0,53.0,29.67,SSE,157,1.0,8.0,25,0.00,,,0.00,,2013-05-14 22:03:00,
2013-05-14 17:13:00,94.0,53.0,29.67,SSE,157,1.0,8.0,25,0.00,,,0.00,,2013-05-14 22:13:00,
2013-05-14 17:24:00,94.0,55.0,29.66,NW,304,1.0,7.0,27,0.00,,,0.00,,2013-05-14 22:24:00,
2013-05-14 17:34:00,94.0,55.0,29.66,SSE,163,2.0,5.0,27,0.00,,,0.00,,2013-05-14 22:34:00,
2013-05-14 17:45:00,94.0,55.0,29.66,SSE,163,2.0,5.0,27,0.00,,,0.00,,2013-05-14 22:45:00,
2013-05-14 17:54:00,93.0,53.0,29.65,WNW,298,4.0,8.0,26,0.00,,,0.00,,2013-05-14 22:54:00,
2013-05-14 18:03:00,93.0,56.0,29.65,West,279,2.0,8.0,29,0.00,,,0.00,,2013-05-14 23:03:00,
2013-05-14 18:12:00,93.0,56.0,29.65,West,279,2.0,8.0,29,0.00,,,0.00,,2013-05-14 23:12:00,
2013-05-14 18:21:00,92.0,55.0,29.64,SE,136,4.0,12.0,29,0.00,,,0.00,,2013-05-14 23:21:00,
2013-05-14 18:31:00,91.0,56.0,29.63,NW,321,1.0,7.0,31,0.00,,,0.00,,2013-05-14 23:31:00,
2013-05-14 18:44:00,91.0,56.0,29.63,NW,321,1.0,7.0,31,0.00,,,0.00,,2013-05-14 23:44:00,
2013-05-14 18:52:00,90.0,55.0,29.63,ENE,72,3.0,12.0,31,0.00,,,0.00,,2013-05-14 23:52:00,
2013-05-14 19:02:00,89.0,55.0,29.62,SE,145,4.0,14.0,32,0.00,,,0.00,,2013-05-15 00:02:00,
2013-05-14 19:11:00,89.0,55.0,29.62,SE,145,4.0,14.0,32,0.00,,,0.00,,2013-05-15 00:11:00,
2013-05-14 19:21:00,88.0,55.0,29.62,NE,54,3.0,13.0,33,0.00,,,0.00,,2013-05-15 00:21:00,
2013-05-14 19:32:00,87.0,55.0,29.63,ESE,123,3.0,11.0,34,0.00,,,0.00,,2013-05-15 00:32:00,
2013-05-14 19:42:00,87.0,55.0,29.63,ESE,123,3.0,11.0,34,0.00,,,0.00,,2013-05-15 00:42:00,
2013-05-14 19:52:00,86.0,56.0,29.63,ESE,117,2.0,8.0,36,0.00,,,0.00,,2013-05-15 00:52:00,
2013-05-14 20:01:00,85.0,56.0,29.63,WNW,296,1.0,8.0,37,0.00,,,0.00,,2013-05-15 01:01:00,
2013-05-14 20:11:00,85.0,56.0,29.63,WNW,296,1.0,8.0,37,0.00,,,0.00,,2013-05-15 01:11:00,
2013-05-14 20:21:00,84.0,55.0,29.63,South,171,0.0,5.0,37,0.00,,,0.00,,2013-05-15 01:21:00,
2013-05-14 20:31:00,83.0,55.0,29.63,NE,37,0.0,6.0,39,0.00,,,0.00,,2013-05-15 01:31:00,
2013-05-14 20:42:00,83.0,55.0,29.63,NE,37,0.0,6.0,39,0.00,,,0.00,,2013-05-15 01:42:00,
2013-05-14 20:52:00,82.0,55.0,29.63,West,280,2.0,6.0,40,0.00,,,0.00,,2013-05-15 01:52:00,
2013-05-14 21:01:00,81.0,55.0,29.63,South,187,1.0,5.0,41,0.00,,,0.00,,2013-05-15 02:01:00,
2013-05-14 21:11:00,81.0,55.0,29.63,South,187,1.0,5.0,41,0.00,,,0.00,,2013-05-15 02:11:00,
2013-05-14 21:21:00,81.0,56.0,29.64,SW,230,0.0,3.0,42,0.00,,,0.00,,2013-05-15 02:21:00,
2013-05-14 21:31:00,80.0,55.0,29.64,WSW,257,1.0,8.0,43,0.00,,,0.00,,2013-05-15 02:31:00,
2013-05-14 21:42:00,80.0,55.0,29.64,WSW,257,1.0,8.0,43,0.00,,,0.00,,2013-05-15 02:42:00,
2013-05-14 21:52:00,79.0,55.0,29.65,WNW,295,0.0,6.0,43,0.00,,,0.00,,2013-05-15 02:52:00,
2013-05-14 22:01:00,79.0,55.0,29.65,SE,144,1.0,9.0,44,0.00,,,0.00,,2013-05-15 03:01:00,
2013-05-14 22:12:00,79.0,55.0,29.65,SE,144,1.0,9.0,44,0.00,,,0.00,,2013-05-15 03:12:00,
2013-05-14 22:22:00,79.0,55.0,29.65,SE,142,1.0,9.0,44,0.00,,,0.00,,2013-05-15 03:22:00,
2013-05-14 22:33:00,79.0,55.0,29.65,SSE,151,1.0,7.0,44,0.00,,,0.00,,2013-05-15 03:33:00,
2013-05-14 22:44:00,78.0,54.0,29.66,West,275,1.0,7.0,44,0.00,,,0.00,,2013-05-15 03:44:00,
2013-05-14 22:54:00,78.0,54.0,29.66,West,275,1.0,7.0,44,0.00,,,0.00,,2013-05-15 03:54:00,
2013-05-14 23:03:00,78.0,54.0,29.66,SW,234,1.0,11.0,43,0.00,,,0.00,,2013-05-15 04:03:00,
2013-05-14 23:12:00,78.0,54.0,29.66,SW,234,1.0,11.0,43,0.00,,,0.00,,2013-05-15 04:12:00,
2013-05-14 23:24:00,78.0,54.0,29.66,West,265,2.0,6.0,43,0.00,,,0.00,,2013-05-15 04:24:00,
2013-05-14 23:33:00,78.0,52.0,29.66,WNW,284,2.0,12.0,41,0.00,,,0.00,,2013-05-15 04:33:00,
2013-05-14 23:42:00,78.0,52.0,29.66,WNW,284,2.0,12.0,41,0.00,,,0.00,,2013-05-15 04:42:00,
2013-05-14 23:52:00,78.0,51.0,29.66,NW,310,3.0,11.0,39,0.00,,,0.00,,2013-05-15 04:52:00,